Time;durP1;ratioP1;P1;durP2;ratioP2;P2;SDS_P1;SDS_P2;PMS_P1;PMS_P2;Temp;Humidity;BMP_temperature;BMP_pressure;BME280_temperature;BME280_humidity;BME280_pressure;Samples;Min_cycle;Max_cycle;Signal;HPM_P1;HPM_P2
2021/11/21 00:01:16;;;;;;;0.13;0.13;;;16.80;99.90;;;;;;5043500;28;20484;-72
2021/11/21 00:03:43;;;;;;;1.45;0.13;;;16.80;99.90;;;;;;5042663;28;20032;-71
2021/11/21 00:06:10;;;;;;;0.03;0.00;;;16.80;99.90;;;;;;5036240;28;20642;-75
2021/11/21 00:08:39;;;;;;;1.85;0.13;;;16.80;99.90;;;;;;5048787;28;20037;-76
2021/11/21 00:11:07;;;;;;;0.43;0.20;;;16.80;99.90;;;;;;5033231;28;20075;-70
2021/11/21 00:13:36;;;;;;;1.45;0.13;;;16.70;99.90;;;;;;5048632;28;20037;-77
2021/11/21 00:16:04;;;;;;;0.52;0.17;;;16.70;99.90;;;;;;5046428;28;20068;-72
2021/11/21 00:18:32;;;;;;;1.95;0.35;;;16.60;99.90;;;;;;5039385;28;20033;-73
2021/11/21 00:21:00;;;;;;;3.00;0.20;;;16.60;99.90;;;;;;5042350;28;20028;-76
2021/11/21 00:23:27;;;;;;;1.70;0.20;;;16.60;99.90;;;;;;5040367;28;20601;-72
2021/11/21 00:25:55;;;;;;;0.15;0.10;;;16.70;99.90;;;;;;5038666;28;20043;-74
2021/11/21 00:28:22;;;;;;;0.17;0.10;;;16.80;99.90;;;;;;5048125;28;20039;-72
2021/11/21 00:30:50;;;;;;;0.60;0.52;;;16.80;99.90;;;;;;5045827;28;20434;-72
2021/11/21 00:33:18;;;;;;;0.00;0.00;;;16.90;99.90;;;;;;5049749;28;20033;-72
2021/11/21 00:35:46;;;;;;;2.95;0.20;;;16.90;99.90;;;;;;5038406;28;20033;-73
2021/11/21 00:38:16;;;;;;;0.90;0.13;;;16.90;99.90;;;;;;5034792;28;20080;-71
2021/11/21 00:40:45;;;;;;;0.65;0.20;;;17.00;99.90;;;;;;5038070;28;20414;-76
2021/11/21 00:43:12;;;;;;;0.52;0.10;;;17.00;99.90;;;;;;5051101;28;20051;-73
2021/11/21 00:45:40;;;;;;;0.43;0.20;;;17.10;99.90;;;;;;5045117;28;20029;-75
2021/11/21 00:48:07;;;;;;;0.38;0.10;;;17.20;99.90;;;;;;5039835;28;20074;-73
2021/11/21 00:50:35;;;;;;;0.35;0.10;;;17.20;99.90;;;;;;5044417;28;20051;-74
2021/11/21 00:53:03;;;;;;;0.43;0.00;;;17.30;99.90;;;;;;5049237;28;20029;-75
2021/11/21 00:55:38;;;;;;;0.22;0.10;;;17.30;99.90;;;;;;5049704;28;20060;-74
2021/11/21 00:58:10;;;;;;;2.93;0.20;;;17.20;99.90;;;;;;5047260;28;20447;-72
2021/11/21 01:00:40;;;;;;;0.00;0.00;;;17.10;99.90;;;;;;5041611;28;20021;-73
2021/11/21 01:03:12;;;;;;;0.00;0.00;;;17.10;99.90;;;;;;5051467;28;20016;-72
2021/11/21 01:05:41;;;;;;;0.90;0.20;;;17.10;99.90;;;;;;5047773;28;20071;-75
2021/11/21 01:08:09;;;;;;;0.85;0.20;;;17.00;99.90;;;;;;5032526;28;20032;-74
2021/11/21 01:10:38;;;;;;;0.85;0.10;;;17.00;99.90;;;;;;5045192;28;20032;-72
2021/11/21 01:13:06;;;;;;;1.30;0.22;;;16.90;99.90;;;;;;5051586;28;20445;-75
2021/11/21 01:15:34;;;;;;;1.85;0.10;;;16.90;99.90;;;;;;5049064;28;20091;-76
2021/11/21 01:18:02;;;;;;;1.85;0.90;;;17.00;99.90;;;;;;5040481;28;20025;-73
2021/11/21 01:20:32;;;;;;;0.65;0.40;;;17.00;99.90;;;;;;5043378;28;20029;-73
2021/11/21 01:23:01;;;;;;;0.50;0.30;;;17.00;99.90;;;;;;5045263;28;20025;-71
2021/11/21 01:25:29;;;;;;;0.60;0.20;;;17.00;99.90;;;;;;5049323;28;20036;-72
2021/11/21 01:27:58;;;;;;;0.50;0.28;;;17.00;99.90;;;;;;5049526;28;20036;-71
2021/11/21 01:30:27;;;;;;;0.68;0.10;;;17.10;99.90;;;;;;5037744;28;20056;-72
2021/11/21 01:32:56;;;;;;;1.38;0.20;;;17.20;99.90;;;;;;5045240;28;20048;-72
2021/11/21 01:35:25;;;;;;;0.20;0.10;;;17.30;99.90;;;;;;5044669;28;20064;-72
2021/11/21 01:37:53;;;;;;;0.80;0.30;;;17.30;99.90;;;;;;5043378;28;20037;-72
2021/11/21 01:40:21;;;;;;;2.05;0.50;;;17.40;99.90;;;;;;5047068;28;20074;-74
2021/11/21 01:42:51;;;;;;;1.73;0.70;;;17.40;99.90;;;;;;5047710;28;20021;-73
2021/11/21 01:45:19;;;;;;;2.30;0.73;;;17.50;99.90;;;;;;5041711;28;20036;-72
2021/11/21 01:47:47;;;;;;;3.13;0.60;;;17.40;99.90;;;;;;5043052;28;20117;-74
2021/11/21 01:50:19;;;;;;;3.40;0.20;;;17.50;99.90;;;;;;5043567;28;20048;-73
2021/11/21 01:52:47;;;;;;;1.00;0.40;;;17.60;99.90;;;;;;5044621;28;20021;-74
2021/11/21 01:55:14;;;;;;;0.50;0.20;;;17.60;99.90;;;;;;5046077;28;20132;-74
2021/11/21 01:57:42;;;;;;;0.68;0.10;;;17.50;99.90;;;;;;5046893;28;21625;-74
2021/11/21 02:00:12;;;;;;;0.88;0.25;;;17.40;99.90;;;;;;5038432;28;20029;-76
2021/11/21 02:02:40;;;;;;;2.35;0.30;;;17.40;99.90;;;;;;5046209;28;20017;-72
2021/11/21 02:05:08;;;;;;;3.33;1.23;;;17.40;99.90;;;;;;5042027;28;20029;-73
2021/11/21 02:07:36;;;;;;;0.70;0.20;;;17.30;99.90;;;;;;5035677;28;20025;-73
2021/11/21 02:10:07;;;;;;;3.60;1.85;;;17.30;99.90;;;;;;5038528;28;20159;-72
2021/11/21 02:12:34;;;;;;;1.85;0.43;;;17.30;99.90;;;;;;5043590;28;20067;-74
2021/11/21 02:15:03;;;;;;;1.30;0.22;;;17.30;99.90;;;;;;5048867;28;20495;-73
2021/11/21 02:17:30;;;;;;;3.78;0.40;;;17.20;99.90;;;;;;5046850;28;20459;-75
2021/11/21 02:20:02;;;;;;;1.35;0.25;;;17.30;99.90;;;;;;5043777;28;20033;-77
2021/11/21 02:22:30;;;;;;;0.35;0.10;;;17.30;99.90;;;;;;5046840;28;20400;-75
2021/11/21 02:24:57;;;;;;;1.08;0.38;;;17.30;99.90;;;;;;5039991;28;20017;-75
2021/11/21 02:27:30;;;;;;;1.08;0.40;;;17.30;99.90;;;;;;5052087;28;20032;-75
2021/11/21 02:29:58;;;;;;;0.40;0.20;;;17.30;99.90;;;;;;5049764;28;20041;-75
2021/11/21 02:32:26;;;;;;;1.48;0.40;;;17.30;99.90;;;;;;5043317;28;20041;-73
2021/11/21 02:34:54;;;;;;;1.38;0.28;;;17.20;99.90;;;;;;5044260;28;20025;-73
2021/11/21 02:37:22;;;;;;;0.30;0.30;;;17.10;99.90;;;;;;5052576;28;20116;-74
2021/11/21 02:39:49;;;;;;;0.52;0.30;;;17.00;99.90;;;;;;5050640;28;20056;-74
2021/11/21 02:42:34;;;;;;;1.02;0.20;;;17.00;99.90;;;;;;5047584;28;20391;-73
2021/11/21 02:45:03;;;;;;;1.45;0.20;;;17.00;99.90;;;;;;5036438;28;20364;-71
2021/11/21 02:47:34;;;;;;;0.93;0.40;;;17.00;99.90;;;;;;5051340;28;20089;-71
2021/11/21 02:50:11;;;;;;;2.75;1.35;;;16.90;99.90;;;;;;5050891;28;20426;-74
2021/11/21 02:52:39;;;;;;;1.35;1.00;;;17.00;99.90;;;;;;5046449;28;20017;-72
2021/11/21 02:55:08;;;;;;;1.45;0.90;;;17.00;99.90;;;;;;5042058;28;20044;-73
2021/11/21 02:57:36;;;;;;;3.65;0.50;;;17.10;99.90;;;;;;5047673;28;20044;-74
2021/11/21 03:00:07;;;;;;;4.05;1.10;;;17.20;99.90;;;;;;5049799;28;20024;-73
2021/11/21 03:02:34;;;;;;;1.98;0.70;;;17.30;99.90;;;;;;5052405;28;20037;-73
2021/11/21 03:05:01;;;;;;;1.13;1.00;;;17.30;99.90;;;;;;5043119;28;20040;-72
2021/11/21 03:07:29;;;;;;;3.35;1.17;;;17.40;99.90;;;;;;5033725;28;20082;-75
2021/11/21 03:09:56;;;;;;;2.67;0.50;;;17.40;99.90;;;;;;5045624;28;20033;-75
2021/11/21 03:12:24;;;;;;;2.13;1.10;;;17.40;99.90;;;;;;5034490;28;20029;-73
2021/11/21 03:14:53;;;;;;;1.90;0.80;;;17.30;99.90;;;;;;5044761;28;20162;-74
2021/11/21 03:17:22;;;;;;;1.50;0.70;;;17.30;99.90;;;;;;5052199;28;20415;-76
2021/11/21 03:19:50;;;;;;;1.17;0.80;;;17.20;99.90;;;;;;5050515;28;20476;-75
2021/11/21 03:22:18;;;;;;;2.42;1.38;;;17.30;99.90;;;;;;5044474;28;20036;-77
2021/11/21 03:24:45;;;;;;;4.80;2.38;;;17.30;99.90;;;;;;5038908;28;20372;-72
2021/11/21 03:27:14;;;;;;;5.53;2.50;;;17.30;99.90;;;;;;5047923;28;20033;-77
2021/11/21 03:29:42;;;;;;;6.97;3.75;;;17.20;99.90;;;;;;5052179;28;20496;-74
2021/11/21 03:32:09;;;;;;;7.10;3.42;;;17.20;99.90;;;;;;5040814;28;20037;-73
2021/11/21 03:34:38;;;;;;;8.35;4.07;;;17.20;99.90;;;;;;5042223;28;20029;-74
2021/11/21 03:37:07;;;;;;;3.17;2.85;;;17.20;99.90;;;;;;5050910;28;20029;-73
2021/11/21 03:39:35;;;;;;;4.40;3.65;;;17.20;99.90;;;;;;5044720;28;20025;-73
2021/11/21 03:42:03;;;;;;;4.22;3.83;;;17.30;99.90;;;;;;5051932;28;20029;-75
2021/11/21 03:44:32;;;;;;;5.35;2.50;;;17.30;99.90;;;;;;5048602;28;20831;-77
2021/11/21 03:46:59;;;;;;;4.38;2.72;;;17.20;99.90;;;;;;5050377;28;20032;-72
2021/11/21 03:49:27;;;;;;;6.50;3.38;;;17.20;99.90;;;;;;5051524;28;20108;-71
2021/11/21 03:51:54;;;;;;;1.73;1.20;;;17.20;99.90;;;;;;5051856;28;20436;-71
2021/11/21 03:54:22;;;;;;;3.42;1.88;;;17.20;99.90;;;;;;5042063;28;20052;-70
2021/11/21 03:56:49;;;;;;;4.28;1.65;;;17.20;99.90;;;;;;5042810;28;20036;-74
2021/11/21 03:59:18;;;;;;;0.70;0.50;;;17.30;99.90;;;;;;5048787;28;20029;-73
2021/11/21 04:01:45;;;;;;;1.05;0.30;;;17.30;99.90;;;;;;5047118;28;20032;-73
2021/11/21 04:04:13;;;;;;;2.58;1.02;;;17.30;99.90;;;;;;5043281;28;20024;-73
2021/11/21 04:06:40;;;;;;;1.42;0.65;;;17.30;99.90;;;;;;5038228;28;20037;-74
2021/11/21 04:09:08;;;;;;;4.00;0.75;;;17.30;99.90;;;;;;5040090;28;20031;-74
2021/11/21 04:11:35;;;;;;;0.28;0.20;;;17.30;99.90;;;;;;5042766;28;20037;-73
2021/11/21 04:14:03;;;;;;;1.95;0.30;;;17.40;99.90;;;;;;5034321;28;20053;-72
2021/11/21 04:16:31;;;;;;;2.25;0.40;;;17.40;99.90;;;;;;5037347;28;20048;-74
2021/11/21 04:18:58;;;;;;;2.47;0.55;;;17.40;99.90;;;;;;5037025;28;20028;-75
2021/11/21 04:21:26;;;;;;;1.63;0.30;;;17.30;99.90;;;;;;5035387;28;20037;-73
2021/11/21 04:23:54;;;;;;;0.98;0.68;;;17.30;99.90;;;;;;5040118;28;20123;-74
2021/11/21 04:26:21;;;;;;;2.05;0.32;;;17.20;99.90;;;;;;5039764;28;20099;-74
2021/11/21 04:28:49;;;;;;;1.35;0.60;;;17.10;99.90;;;;;;5036122;28;20030;-73
2021/11/21 04:31:16;;;;;;;1.55;0.55;;;16.90;99.90;;;;;;5038173;28;20080;-74
2021/11/21 04:33:44;;;;;;;1.25;0.30;;;16.90;99.90;;;;;;5043778;28;20105;-71
2021/11/21 04:36:11;;;;;;;0.20;0.15;;;16.90;99.90;;;;;;5044747;28;20394;-72
2021/11/21 04:38:39;;;;;;;0.63;0.20;;;16.80;99.90;;;;;;5036510;28;20025;-71
2021/11/21 04:41:06;;;;;;;0.10;0.10;;;16.80;99.90;;;;;;5046361;28;20025;-73
2021/11/21 04:43:33;;;;;;;2.50;0.77;;;16.70;99.90;;;;;;5044602;28;20017;-72
2021/11/21 04:46:01;;;;;;;0.30;0.28;;;16.70;99.90;;;;;;5042632;28;20032;-72
2021/11/21 04:48:28;;;;;;;1.30;0.57;;;16.60;99.90;;;;;;5045763;28;20025;-74
2021/11/21 04:50:56;;;;;;;0.77;0.20;;;16.60;99.90;;;;;;5042827;28;20168;-75
2021/11/21 04:53:23;;;;;;;1.98;0.20;;;16.60;99.90;;;;;;5037879;28;20033;-73
2021/11/21 04:55:50;;;;;;;0.10;0.10;;;16.60;99.90;;;;;;5038624;28;20033;-75
2021/11/21 04:58:18;;;;;;;0.60;0.30;;;16.60;99.90;;;;;;5039029;28;20032;-74
2021/11/21 05:00:45;;;;;;;0.60;0.60;;;16.60;99.90;;;;;;5038097;28;20356;-74
2021/11/21 05:03:13;;;;;;;1.63;0.90;;;16.60;99.90;;;;;;5036680;28;20024;-72
2021/11/21 05:05:40;;;;;;;6.05;1.20;;;16.60;99.90;;;;;;5037311;28;20037;-73
2021/11/21 05:08:09;;;;;;;2.00;0.40;;;16.50;99.90;;;;;;5048820;28;20492;-73
2021/11/21 05:10:36;;;;;;;2.45;0.63;;;16.60;99.90;;;;;;5039048;28;20460;-74
2021/11/21 05:13:03;;;;;;;2.58;0.63;;;16.60;99.90;;;;;;5043661;28;20028;-74
2021/11/21 05:15:31;;;;;;;4.00;3.08;;;16.60;99.90;;;;;;5043477;28;20029;-74
2021/11/21 05:18:00;;;;;;;6.00;2.88;;;16.60;99.90;;;;;;5042438;28;20021;-73
2021/11/21 05:20:27;;;;;;;1.75;0.60;;;16.60;99.90;;;;;;5043724;28;20117;-73
2021/11/21 05:22:55;;;;;;;0.82;0.30;;;16.60;99.90;;;;;;5041150;28;20104;-76
2021/11/21 05:25:23;;;;;;;1.85;0.55;;;16.60;99.90;;;;;;5043847;28;20033;-76
2021/11/21 05:27:51;;;;;;;3.83;1.20;;;16.70;99.90;;;;;;5041437;28;20014;-76
2021/11/21 05:30:21;;;;;;;0.77;0.20;;;16.70;99.90;;;;;;5042787;28;20052;-73
2021/11/21 05:32:49;;;;;;;2.30;0.50;;;16.60;99.90;;;;;;5038024;28;20048;-74
2021/11/21 05:35:17;;;;;;;2.13;0.50;;;16.60;99.90;;;;;;5037520;28;20036;-74
2021/11/21 05:37:48;;;;;;;0.73;0.35;;;16.60;99.90;;;;;;5035515;28;20639;-74
2021/11/21 05:40:16;;;;;;;2.10;0.55;;;16.50;99.90;;;;;;5047595;28;20040;-75
2021/11/21 05:42:43;;;;;;;5.38;1.65;;;16.60;99.90;;;;;;5037094;28;20029;-76
2021/11/21 05:45:11;;;;;;;4.95;0.20;;;16.50;99.90;;;;;;5042174;28;20033;-74
2021/11/21 05:47:40;;;;;;;1.15;0.38;;;16.50;99.90;;;;;;5041344;28;20071;-74
2021/11/21 05:50:12;;;;;;;2.38;0.38;;;16.60;99.90;;;;;;5050348;28;20021;-74
2021/11/21 05:52:42;;;;;;;3.75;0.57;;;16.60;99.90;;;;;;5059122;28;20025;-75
2021/11/21 05:55:10;;;;;;;3.20;0.47;;;16.60;99.90;;;;;;5052694;28;20132;-74
2021/11/21 05:57:38;;;;;;;2.38;0.30;;;16.60;99.90;;;;;;5051972;28;20029;-75
2021/11/21 06:00:08;;;;;;;3.00;0.40;;;16.60;99.90;;;;;;5039240;28;20029;-74
2021/11/21 06:02:35;;;;;;;4.50;0.63;;;16.60;99.90;;;;;;5038707;28;20380;-73
2021/11/21 06:05:05;;;;;;;3.33;0.85;;;16.60;99.90;;;;;;5041325;28;20483;-74
2021/11/21 06:07:32;;;;;;;3.58;0.73;;;16.50;99.90;;;;;;5039031;28;20033;-73
2021/11/21 06:10:02;;;;;;;2.75;1.00;;;16.50;99.90;;;;;;5040575;28;20033;-74
2021/11/21 06:12:30;;;;;;;2.88;0.70;;;16.50;99.90;;;;;;5042675;28;20017;-73
2021/11/21 06:14:59;;;;;;;1.02;0.50;;;16.60;99.90;;;;;;5042019;28;20030;-76
2021/11/21 06:17:26;;;;;;;3.70;0.60;;;16.50;99.90;;;;;;5042520;28;20115;-72
2021/11/21 06:19:55;;;;;;;1.75;0.45;;;16.60;99.90;;;;;;5046396;28;20029;-74
2021/11/21 06:22:25;;;;;;;1.80;0.30;;;16.60;99.90;;;;;;5040045;28;20055;-73
2021/11/21 06:24:52;;;;;;;0.80;0.40;;;16.70;99.90;;;;;;5039917;28;20279;-72
2021/11/21 06:27:20;;;;;;;2.05;0.50;;;16.70;99.90;;;;;;5041731;28;20064;-73
2021/11/21 06:29:47;;;;;;;2.35;0.52;;;16.70;99.90;;;;;;5042209;28;20462;-72
2021/11/21 06:32:15;;;;;;;1.80;0.30;;;16.70;99.90;;;;;;5045558;28;20060;-72
2021/11/21 06:34:42;;;;;;;2.22;0.43;;;16.70;99.90;;;;;;5042319;28;20037;-71
2021/11/21 06:37:10;;;;;;;1.85;0.30;;;16.60;99.90;;;;;;5041429;28;20449;-72
2021/11/21 06:39:41;;;;;;;0.47;0.30;;;16.50;99.90;;;;;;5042104;28;20029;-74
2021/11/21 06:42:11;;;;;;;3.65;0.73;;;16.50;99.90;;;;;;5039564;28;20025;-73
2021/11/21 06:44:39;;;;;;;6.70;1.50;;;16.50;99.90;;;;;;5046613;28;20033;-72
2021/11/21 06:47:07;;;;;;;1.70;0.98;;;16.40;99.90;;;;;;5040296;28;20028;-73
2021/11/21 06:49:34;;;;;;;1.33;0.30;;;16.40;99.90;;;;;;5038760;28;20181;-73
2021/11/21 06:52:02;;;;;;;1.35;0.82;;;16.30;99.90;;;;;;5038120;28;20026;-74
2021/11/21 06:54:29;;;;;;;2.63;0.30;;;16.30;99.90;;;;;;5044344;28;20124;-73
2021/11/21 06:56:57;;;;;;;4.10;0.70;;;16.50;99.90;;;;;;5045333;28;20029;-74
2021/11/21 06:59:24;;;;;;;3.42;1.08;;;16.60;99.90;;;;;;5046923;28;20484;-76
2021/11/21 07:01:52;;;;;;;1.73;0.40;;;16.60;99.90;;;;;;5045459;28;20122;-73
2021/11/21 07:04:19;;;;;;;1.17;0.32;;;16.50;99.90;;;;;;5043482;28;20021;-74
2021/11/21 07:06:47;;;;;;;2.03;0.45;;;16.50;99.90;;;;;;5042617;28;21198;-72
2021/11/21 07:09:17;;;;;;;2.80;1.67;;;16.50;99.90;;;;;;5038827;28;20384;-74
2021/11/21 07:11:46;;;;;;;1.95;0.52;;;16.60;99.90;;;;;;5046882;28;20043;-73
2021/11/21 07:14:14;;;;;;;3.63;0.35;;;16.60;99.90;;;;;;5040356;28;20037;-74
2021/11/21 07:16:44;;;;;;;1.75;0.35;;;16.50;99.90;;;;;;5036602;28;20029;-74
2021/11/21 07:19:12;;;;;;;2.05;0.50;;;16.50;99.90;;;;;;5036558;28;20660;-72
2021/11/21 07:21:40;;;;;;;3.70;0.70;;;16.50;99.90;;;;;;5036249;28;20041;-75
2021/11/21 07:24:07;;;;;;;3.45;0.70;;;16.50;99.90;;;;;;5036696;28;20070;-72
2021/11/21 07:26:35;;;;;;;0.43;0.30;;;16.50;99.90;;;;;;5037545;28;20056;-75
2021/11/21 07:29:04;;;;;;;2.97;0.52;;;16.60;99.90;;;;;;5035097;28;20056;-76
2021/11/21 07:31:32;;;;;;;3.50;0.98;;;16.60;99.90;;;;;;5046814;28;20057;-74
2021/11/21 07:34:00;;;;;;;3.53;1.05;;;16.70;99.90;;;;;;5044814;28;20485;-74
2021/11/21 07:36:27;;;;;;;1.80;0.40;;;16.70;99.90;;;;;;5032254;28;20044;-73
2021/11/21 07:38:54;;;;;;;4.25;0.55;;;16.70;99.90;;;;;;5036098;28;20029;-73
2021/11/21 07:41:22;;;;;;;3.88;1.25;;;16.70;99.90;;;;;;5040591;28;20025;-73
2021/11/21 07:43:50;;;;;;;3.67;0.50;;;16.80;99.90;;;;;;5042860;28;20444;-72
2021/11/21 07:46:18;;;;;;;5.28;0.55;;;16.80;99.90;;;;;;5046705;28;20036;-74
2021/11/21 07:48:45;;;;;;;2.50;1.15;;;16.80;99.90;;;;;;5035404;28;20136;-74
2021/11/21 07:51:13;;;;;;;3.63;1.13;;;16.80;99.90;;;;;;5038677;28;20544;-73
2021/11/21 07:53:40;;;;;;;2.40;0.50;;;16.90;99.90;;;;;;5047523;28;20310;-72
2021/11/21 07:56:07;;;;;;;5.72;2.17;;;16.90;99.90;;;;;;5039684;28;20155;-72
2021/11/21 07:58:35;;;;;;;5.38;2.08;;;16.80;99.90;;;;;;5044978;28;20057;-72
2021/11/21 08:01:03;;;;;;;7.97;1.48;;;16.80;99.90;;;;;;5039462;28;20086;-73
2021/11/21 08:03:30;;;;;;;3.00;0.80;;;16.90;99.90;;;;;;5045361;28;20028;-73
2021/11/21 08:05:58;;;;;;;3.08;0.73;;;16.90;99.90;;;;;;5041096;28;20021;-73
2021/11/21 08:08:25;;;;;;;3.65;0.63;;;16.80;99.90;;;;;;5039432;28;20040;-71
2021/11/21 08:10:52;;;;;;;6.07;0.98;;;16.80;99.90;;;;;;5040610;28;20035;-74
2021/11/21 08:13:20;;;;;;;3.72;0.73;;;16.80;99.90;;;;;;5046046;28;20017;-73
2021/11/21 08:15:48;;;;;;;4.10;0.80;;;16.80;99.90;;;;;;5043289;28;20045;-75
2021/11/21 08:18:16;;;;;;;5.93;1.90;;;16.80;99.90;;;;;;5039494;28;20105;-73
2021/11/21 08:20:43;;;;;;;7.38;1.98;;;16.80;99.90;;;;;;5039366;28;20036;-73
2021/11/21 08:23:11;;;;;;;10.02;2.38;;;16.80;99.90;;;;;;5043679;28;20022;-73
2021/11/21 08:25:38;;;;;;;13.00;2.72;;;16.80;99.90;;;;;;5040360;28;20033;-71
2021/11/21 08:28:06;;;;;;;9.18;1.45;;;16.80;99.90;;;;;;5045865;28;20025;-73
2021/11/21 08:30:38;;;;;;;7.22;2.25;;;16.70;99.90;;;;;;5035711;28;20049;-73
2021/11/21 08:33:07;;;;;;;11.43;2.00;;;16.70;99.90;;;;;;5039935;28;20140;-73
2021/11/21 08:35:35;;;;;;;11.02;1.23;;;16.70;99.90;;;;;;5042810;28;20051;-73
2021/11/21 08:38:03;;;;;;;8.38;0.70;;;16.70;99.90;;;;;;5041530;28;20434;-74
2021/11/21 08:40:32;;;;;;;6.00;1.83;;;16.70;99.90;;;;;;5032377;28;20726;-73
2021/11/21 08:43:01;;;;;;;9.05;1.23;;;16.70;99.90;;;;;;5034986;28;20025;-73
2021/11/21 08:45:31;;;;;;;7.43;1.42;;;16.70;99.90;;;;;;5043338;28;20025;-73
2021/11/21 08:47:59;;;;;;;11.85;2.67;;;16.80;99.90;;;;;;5043666;28;20024;-74
2021/11/21 08:50:27;;;;;;;6.90;0.60;;;16.80;99.90;;;;;;5038781;28;20098;-74
2021/11/21 08:52:55;;;;;;;12.35;1.75;;;16.70;99.90;;;;;;5047798;28;20024;-72
2021/11/21 08:55:22;;;;;;;9.73;3.42;;;16.80;99.90;;;;;;5040633;28;20076;-75
2021/11/21 08:57:50;;;;;;;8.48;1.15;;;16.80;99.90;;;;;;5038531;28;20021;-74
2021/11/21 09:00:18;;;;;;;7.35;1.33;;;16.70;99.90;;;;;;5033039;28;20140;-76
2021/11/21 09:02:46;;;;;;;6.53;0.82;;;16.80;99.90;;;;;;5037797;28;20040;-75
2021/11/21 09:05:14;;;;;;;12.82;1.10;;;16.80;99.90;;;;;;5040042;28;20408;-74
2021/11/21 09:07:44;;;;;;;6.15;0.80;;;16.80;99.90;;;;;;5040943;28;20052;-74
2021/11/21 09:10:15;;;;;;;3.92;1.23;;;16.80;99.90;;;;;;5039320;28;20040;-74
2021/11/21 09:12:43;;;;;;;3.80;0.82;;;16.80;99.90;;;;;;5033414;28;20033;-74
2021/11/21 09:15:18;;;;;;;11.35;1.77;;;16.80;99.90;;;;;;5036574;28;20041;-74
2021/11/21 09:17:52;;;;;;;3.15;1.25;;;16.90;99.90;;;;;;5041884;28;20025;-74
2021/11/21 09:20:23;;;;;;;6.35;2.00;;;17.00;99.90;;;;;;5037088;28;20059;-75
2021/11/21 09:22:52;;;;;;;6.35;1.33;;;16.90;99.90;;;;;;5040830;28;20424;-75
2021/11/21 09:25:20;;;;;;;5.20;0.80;;;16.90;99.90;;;;;;5039916;28;20499;-74
2021/11/21 09:27:48;;;;;;;10.60;1.23;;;16.90;99.90;;;;;;5039697;28;20129;-74
2021/11/21 09:30:16;;;;;;;6.50;1.55;;;17.00;99.90;;;;;;5039077;28;20049;-75
2021/11/21 09:32:43;;;;;;;15.02;2.30;;;16.90;99.90;;;;;;5038353;28;20030;-75
2021/11/21 09:35:11;;;;;;;3.95;1.50;;;17.00;99.90;;;;;;5037719;28;20419;-74
2021/11/21 09:37:39;;;;;;;8.50;0.95;;;17.00;99.90;;;;;;5038833;28;20048;-73
2021/11/21 09:40:07;;;;;;;7.30;1.00;;;17.00;99.90;;;;;;5036965;28;20476;-74
2021/11/21 09:42:36;;;;;;;6.95;1.00;;;17.00;99.90;;;;;;5037381;28;20076;-71
2021/11/21 09:45:05;;;;;;;5.78;1.13;;;16.90;99.90;;;;;;5041919;28;20029;-72
2021/11/21 09:47:33;;;;;;;10.52;0.85;;;16.80;99.90;;;;;;5038378;28;20502;-73
2021/11/21 09:50:06;;;;;;;9.85;1.50;;;16.70;99.90;;;;;;5030542;28;20052;-72
2021/11/21 09:52:34;;;;;;;5.80;1.27;;;16.60;99.90;;;;;;5042318;28;20032;-72
2021/11/21 09:55:02;;;;;;;6.30;1.55;;;16.60;99.90;;;;;;5037402;28;20029;-72
2021/11/21 09:57:32;;;;;;;5.85;0.82;;;16.50;99.90;;;;;;5042024;28;20086;-73
2021/11/21 10:00:03;;;;;;;5.20;0.60;;;16.40;99.90;;;;;;5043458;28;20048;-76
2021/11/21 10:02:33;;;;;;;4.10;0.95;;;16.40;99.90;;;;;;5034125;28;20025;-75
2021/11/21 10:05:29;;;;;;;4.95;0.77;;;16.40;99.90;;;;;;5038821;28;20101;-74
2021/11/21 10:08:15;;;;;;;4.75;0.80;;;16.30;99.90;;;;;;5036518;28;20384;-73
2021/11/21 10:10:54;;;;;;;4.15;0.65;;;16.40;99.90;;;;;;5041686;28;20082;-76
2021/11/21 10:13:37;;;;;;;8.23;1.67;;;16.30;99.90;;;;;;5040509;28;20033;-76
2021/11/21 10:16:19;;;;;;;9.00;1.65;;;16.30;99.90;;;;;;5035854;28;20044;-72
2021/11/21 10:18:48;;;;;;;13.80;1.85;;;16.30;99.90;;;;;;5041204;28;20111;-75
2021/11/21 10:21:16;;;;;;;7.00;0.90;;;16.30;99.90;;;;;;5041731;28;20036;-71
2021/11/21 10:23:45;;;;;;;4.85;1.60;;;16.30;99.90;;;;;;5040191;28;20587;-71
2021/11/21 10:26:24;;;;;;;8.98;1.30;;;16.30;99.90;;;;;;5038783;28;20033;-75
2021/11/21 10:28:52;;;;;;;11.05;0.93;;;16.30;99.90;;;;;;5039086;28;20539;-73
2021/11/21 10:31:24;;;;;;;9.35;0.90;;;16.30;99.90;;;;;;5040431;28;20045;-75
2021/11/21 10:33:58;;;;;;;9.60;1.00;;;16.30;99.90;;;;;;5047470;28;20040;-72
2021/11/21 10:36:27;;;;;;;5.35;0.70;;;16.30;99.90;;;;;;5047515;28;20136;-73
2021/11/21 10:39:05;;;;;;;3.83;0.85;;;16.30;99.90;;;;;;5041942;28;20561;-73
2021/11/21 10:41:37;;;;;;;6.70;1.25;;;16.30;99.90;;;;;;5039488;28;20032;-74
2021/11/21 10:44:10;;;;;;;6.47;1.50;;;16.30;99.90;;;;;;5038634;28;20034;-72
2021/11/21 10:46:40;;;;;;;6.22;0.50;;;16.20;99.90;;;;;;5037183;28;20025;-70
2021/11/21 10:49:27;;;;;;;5.95;0.70;;;16.20;99.90;;;;;;5041342;28;20487;-70
2021/11/21 10:52:09;;;;;;;5.15;0.95;;;16.20;99.90;;;;;;5039362;28;20592;-71
2021/11/21 10:54:56;;;;;;;7.05;1.48;;;16.20;99.90;;;;;;5037022;28;20052;-73
2021/11/21 10:57:34;;;;;;;7.65;1.35;;;16.30;99.90;;;;;;5046023;28;20483;-73
2021/11/21 11:00:12;;;;;;;6.65;1.45;;;16.30;99.90;;;;;;5036919;28;20395;-71
2021/11/21 11:02:42;;;;;;;6.03;0.98;;;16.20;99.90;;;;;;5041629;28;20104;-72
2021/11/21 11:05:12;;;;;;;6.53;0.70;;;16.20;99.90;;;;;;5042466;28;20033;-75
2021/11/21 11:07:56;;;;;;;5.28;0.75;;;16.20;99.90;;;;;;5042342;28;20025;-71
2021/11/21 11:10:32;;;;;;;4.15;1.02;;;16.20;99.90;;;;;;5042818;28;20040;-73
2021/11/21 11:13:05;;;;;;;4.05;0.50;;;16.20;99.90;;;;;;5041572;28;20021;-72
2021/11/21 11:15:36;;;;;;;4.88;1.05;;;16.20;99.90;;;;;;5038129;28;20128;-72
2021/11/21 11:18:06;;;;;;;7.47;0.57;;;16.20;99.90;;;;;;5037312;28;20033;-72
2021/11/21 11:20:43;;;;;;;9.27;1.42;;;16.20;99.90;;;;;;5043727;28;20485;-74
2021/11/21 11:23:15;;;;;;;2.15;0.80;;;16.20;99.90;;;;;;5035376;28;20032;-73
2021/11/21 11:25:46;;;;;;;8.20;1.27;;;16.20;99.90;;;;;;5040395;28;20037;-73
2021/11/21 11:28:33;;;;;;;6.30;0.80;;;16.20;99.90;;;;;;5043521;28;20497;-72
2021/11/21 11:31:19;;;;;;;5.68;0.73;;;16.20;99.90;;;;;;5040886;28;20465;-73
2021/11/21 11:33:47;;;;;;;4.72;1.17;;;16.20;99.90;;;;;;5041305;28;20040;-73
2021/11/21 11:36:34;;;;;;;7.40;1.17;;;16.20;99.90;;;;;;5043976;28;20049;-74
2021/11/21 11:39:10;;;;;;;6.60;0.55;;;16.20;99.90;;;;;;5040673;28;20017;-73
2021/11/21 11:41:37;;;;;;;2.75;0.38;;;16.20;99.90;;;;;;5041441;28;20099;-74
2021/11/21 11:44:06;;;;;;;7.03;0.63;;;16.20;99.90;;;;;;5045512;28;20025;-73
2021/11/21 11:46:40;;;;;;;7.38;1.30;;;16.20;99.90;;;;;;5048332;28;20436;-74
2021/11/21 11:49:10;;;;;;;9.55;0.85;;;16.20;99.90;;;;;;5038436;28;20021;-73
2021/11/21 11:51:38;;;;;;;5.75;0.65;;;16.20;99.90;;;;;;5040379;28;20017;-74
2021/11/21 11:54:15;;;;;;;4.95;0.75;;;16.10;99.90;;;;;;5035227;28;20047;-72
2021/11/21 11:57:07;;;;;;;10.98;0.80;;;16.10;99.90;;;;;;5034440;28;20638;-73
2021/11/21 11:59:39;;;;;;;7.45;1.30;;;16.10;99.90;;;;;;5037274;28;20041;-73
2021/11/21 12:02:40;;;;;;;3.95;0.80;;;16.20;99.90;;;;;;5039090;28;20028;-73
2021/11/21 12:05:09;;;;;;;5.70;0.60;;;16.10;99.90;;;;;;5039159;28;20087;-74
2021/11/21 12:07:40;;;;;;;6.93;0.82;;;16.10;99.90;;;;;;5044191;28;20036;-74
2021/11/21 12:10:15;;;;;;;5.97;0.70;;;16.10;99.90;;;;;;5038293;28;20242;-74
2021/11/21 12:13:09;;;;;;;2.65;0.40;;;16.10;99.90;;;;;;5036273;28;20036;-73
2021/11/21 12:15:51;;;;;;;2.20;0.68;;;16.10;99.90;;;;;;5038800;28;20044;-73
2021/11/21 12:18:20;;;;;;;4.00;0.70;;;16.10;99.90;;;;;;5036356;28;20365;-74
2021/11/21 12:20:50;;;;;;;3.45;0.55;;;16.10;99.90;;;;;;5037436;28;20111;-72
2021/11/21 12:23:43;;;;;;;9.27;1.50;;;16.10;99.90;;;;;;5048825;28;20036;-73
2021/11/21 12:26:28;;;;;;;9.73;1.30;;;16.20;99.90;;;;;;5040762;28;20082;-72
2021/11/21 12:29:05;;;;;;;6.22;0.77;;;16.20;99.90;;;;;;5049910;28;20059;-72
2021/11/21 12:31:41;;;;;;;7.47;0.63;;;16.10;99.90;;;;;;5046279;28;20055;-73
2021/11/21 12:34:26;;;;;;;3.15;0.50;;;16.10;99.90;;;;;;5050333;28;20398;-72
2021/11/21 12:37:44;;;;;;;5.65;0.40;;;16.20;99.90;;;;;;5040258;28;20036;-73
2021/11/21 12:40:12;;;;;;;;;;;16.20;99.90;;;;;;5034797;28;20639;-72
2021/11/21 12:42:41;;;;;;;5.88;0.68;;;16.10;99.90;;;;;;5043624;28;19962;-71
2021/11/21 12:45:19;;;;;;;5.95;0.80;;;16.20;99.90;;;;;;5040403;28;20040;-70
2021/11/21 12:47:55;;;;;;;7.72;0.80;;;16.20;99.90;;;;;;5041635;28;20025;-72
2021/11/21 12:50:34;;;;;;;2.83;0.88;;;16.20;99.90;;;;;;5041883;28;20029;-73
2021/11/21 12:53:06;;;;;;;3.65;1.10;;;16.10;99.90;;;;;;5043317;28;20420;-72
2021/11/21 12:55:45;;;;;;;2.58;0.50;;;16.10;99.90;;;;;;5043349;28;20065;-71
2021/11/21 12:58:18;;;;;;;3.83;1.15;;;16.10;99.90;;;;;;5035260;28;20116;-72
2021/11/21 13:00:45;;;;;;;4.20;0.43;;;16.10;99.90;;;;;;5047750;28;20155;-71